createdAt,value
2022-12-16T00:01:38.477Z,58.93
2022-12-16T00:04:06.025Z,54.87
2022-12-16T00:06:34.144Z,55.67
2022-12-16T00:09:01.964Z,53.23
2022-12-16T00:11:32.019Z,51.60
2022-12-16T00:13:59.233Z,58.07
2022-12-16T00:16:26.630Z,52.03
2022-12-16T00:18:53.927Z,45.97
2022-12-16T00:21:22.162Z,47.70
2022-12-16T00:23:49.599Z,43.87
2022-12-16T00:26:17.586Z,46.57
2022-12-16T00:28:45.105Z,49.13
2022-12-16T00:31:12.871Z,52.43
2022-12-16T00:33:40.252Z,52.07
2022-12-16T00:36:07.964Z,61.13
2022-12-16T00:38:35.766Z,55.90
2022-12-16T00:41:03.489Z,59.90
2022-12-16T00:43:31.106Z,64.70
2022-12-16T00:45:58.777Z,66.57
2022-12-16T00:48:26.208Z,67.70
2022-12-16T00:50:55.289Z,63.97
2022-12-16T00:53:23.965Z,63.70
2022-12-16T00:55:51.240Z,61.57
2022-12-16T00:58:19.214Z,62.87
2022-12-16T01:00:46.698Z,61.40
2022-12-16T01:03:21.113Z,69.57
2022-12-16T01:05:49.243Z,61.47
2022-12-16T01:08:16.601Z,62.03
2022-12-16T01:10:43.894Z,60.33
2022-12-16T01:13:11.399Z,60.70
2022-12-16T01:15:39.189Z,59.60
2022-12-16T01:18:06.438Z,57.70
2022-12-16T01:20:34.573Z,62.70
2022-12-16T01:23:01.878Z,55.20
2022-12-16T01:25:29.448Z,58.93
2022-12-16T01:27:56.737Z,61.27
2022-12-16T01:30:24.784Z,66.43
2022-12-16T01:32:53.131Z,72.70
2022-12-16T01:35:51.463Z,67.83
2022-12-16T01:38:07.847Z,60.03
2022-12-16T01:40:35.451Z,69.37
2022-12-16T01:43:03.576Z,66.00
2022-12-16T01:45:35.398Z,51.57
2022-12-16T01:48:06.039Z,48.10
2022-12-16T01:50:33.345Z,46.53
2022-12-16T01:53:03.515Z,46.90
2022-12-16T01:55:37.252Z,45.03
2022-12-16T01:58:16.343Z,38.73
2022-12-16T02:00:43.824Z,38.20
2022-12-16T02:03:11.685Z,36.63
2022-12-16T02:05:43.399Z,35.23
2022-12-16T02:08:10.654Z,34.73
2022-12-16T02:10:41.244Z,33.60
2022-12-16T02:13:27.196Z,29.23
2022-12-16T02:16:11.681Z,34.37
2022-12-16T02:18:47.878Z,30.53
2022-12-16T02:21:33.587Z,29.43
2022-12-16T02:24:19.766Z,27.10
2022-12-16T02:27:05.545Z,28.23
2022-12-16T02:29:54.923Z,29.10
2022-12-16T02:32:22.441Z,28.60
2022-12-16T02:35:08.573Z,30.00
2022-12-16T02:37:36.232Z,33.57
2022-12-16T02:40:04.988Z,32.17
2022-12-16T02:42:37.866Z,30.00
2022-12-16T02:45:08.829Z,32.57
2022-12-16T02:47:36.247Z,30.60
2022-12-16T02:50:03.838Z,31.50
2022-12-16T02:52:32.676Z,35.40
2022-12-16T02:55:03.797Z,38.63
2022-12-16T02:57:49.965Z,36.30
2022-12-16T03:00:24.025Z,35.83
2022-12-16T03:02:54.961Z,36.90
2022-12-16T03:05:34.136Z,38.97
2022-12-16T03:08:03.514Z,41.57
2022-12-16T03:10:33.187Z,41.97
2022-12-16T03:13:03.044Z,44.70
2022-12-16T03:15:32.397Z,41.23
2022-12-16T03:18:00.620Z,39.97
2022-12-16T03:20:30.299Z,42.53
2022-12-16T03:23:00.192Z,40.63
2022-12-16T03:25:28.876Z,40.03
2022-12-16T03:28:32.380Z,39.83
2022-12-16T03:31:06.778Z,42.40
2022-12-16T03:33:39.540Z,43.00
2022-12-16T03:36:16.309Z,40.33
2022-12-16T03:38:45.570Z,45.60
2022-12-16T03:41:14.039Z,47.77
2022-12-16T03:43:41.323Z,45.57
2022-12-16T03:46:10.559Z,47.63
2022-12-16T03:48:46.432Z,52.13
2022-12-16T03:51:14.048Z,43.40
2022-12-16T03:53:41.262Z,47.90
2022-12-16T03:56:08.607Z,51.70
2022-12-16T03:58:37.941Z,50.43
2022-12-16T04:01:05.403Z,50.50
2022-12-16T04:03:33.211Z,48.73
2022-12-16T04:06:00.895Z,53.03
2022-12-16T04:08:28.414Z,46.30
2022-12-16T04:11:14.433Z,45.43
2022-12-16T04:14:00.202Z,46.00
2022-12-16T04:16:47.311Z,44.30
2022-12-16T04:19:39.022Z,45.20
2022-12-16T04:22:25.433Z,39.37
2022-12-16T04:24:52.739Z,40.07
2022-12-16T04:27:25.097Z,36.10
2022-12-16T04:30:10.944Z,36.73
2022-12-16T04:32:57.407Z,34.90
2022-12-16T04:35:43.881Z,34.37
2022-12-16T04:38:29.641Z,35.70
2022-12-16T04:41:15.481Z,33.50
2022-12-16T04:44:02.119Z,37.37
2022-12-16T04:46:48.443Z,39.07
2022-12-16T04:49:34.638Z,40.00
2022-12-16T04:52:20.650Z,40.57
2022-12-16T04:55:07.785Z,40.97
2022-12-16T04:57:53.932Z,44.63
2022-12-16T05:00:39.943Z,39.33
2022-12-16T05:03:26.785Z,36.57
2022-12-16T05:06:12.893Z,34.33
2022-12-16T05:08:58.824Z,35.00
2022-12-16T05:11:45.148Z,35.73
2022-12-16T05:14:31.482Z,33.20
2022-12-16T05:17:17.220Z,37.03
2022-12-16T05:20:03.171Z,37.77
2022-12-16T05:22:48.962Z,36.27
2022-12-16T05:25:34.918Z,34.53
2022-12-16T05:28:22.052Z,32.03
2022-12-16T05:31:09.416Z,34.00
2022-12-16T05:33:55.327Z,33.13
2022-12-16T05:36:41.397Z,34.03
2022-12-16T05:39:27.640Z,35.27
2022-12-16T05:42:14.152Z,35.13
2022-12-16T05:45:00.200Z,39.03
2022-12-16T05:47:46.370Z,34.10
2022-12-16T05:50:32.734Z,33.97
2022-12-16T05:53:18.717Z,32.30
2022-12-16T05:56:04.389Z,34.23
2022-12-16T05:58:50.418Z,34.43
2022-12-16T06:01:37.494Z,33.93
2022-12-16T06:04:24.061Z,35.47
2022-12-16T06:07:10.641Z,35.63
2022-12-16T06:09:57.130Z,38.27
2022-12-16T06:12:43.772Z,31.27
2022-12-16T06:15:29.814Z,38.13
2022-12-16T06:18:16.334Z,34.53
2022-12-16T06:21:02.576Z,36.90
2022-12-16T06:23:48.517Z,36.17
2022-12-16T06:26:34.402Z,39.20
2022-12-16T06:29:20.295Z,36.90
2022-12-16T06:32:06.609Z,39.53
2022-12-16T06:34:52.780Z,38.47
2022-12-16T06:37:38.749Z,34.80
2022-12-16T06:40:25.130Z,36.80
2022-12-16T06:43:11.224Z,35.13
2022-12-16T06:45:57.242Z,35.73
2022-12-16T06:48:43.377Z,37.57
2022-12-16T06:51:29.373Z,34.40
2022-12-16T06:54:15.525Z,34.80
2022-12-16T06:57:01.566Z,39.67
2022-12-16T06:59:48.666Z,38.07
2022-12-16T07:02:34.915Z,38.30
2022-12-16T07:05:21.131Z,41.57
2022-12-16T07:08:08.243Z,38.73
2022-12-16T07:10:55.024Z,40.87
2022-12-16T07:13:42.018Z,39.33
2022-12-16T07:16:27.940Z,38.77
2022-12-16T07:19:14.072Z,38.53
2022-12-16T07:21:59.984Z,46.10
2022-12-16T07:24:46.189Z,40.33
2022-12-16T07:27:32.062Z,42.37
2022-12-16T07:30:18.914Z,40.07
2022-12-16T07:33:04.699Z,41.67
2022-12-16T07:35:50.671Z,38.87
2022-12-16T07:38:36.405Z,43.83
2022-12-16T07:41:22.251Z,39.63
2022-12-16T07:44:08.019Z,39.33
2022-12-16T07:46:53.871Z,35.70
2022-12-16T07:49:41.407Z,39.03
2022-12-16T07:52:27.573Z,40.67
2022-12-16T07:55:13.450Z,39.50
2022-12-16T07:57:59.273Z,38.03
2022-12-16T08:00:45.063Z,36.87
2022-12-16T08:03:31.289Z,35.03
2022-12-16T08:06:17.548Z,34.43
2022-12-16T08:09:04.485Z,37.40
2022-12-16T08:11:50.468Z,36.80
2022-12-16T08:14:36.313Z,37.80
2022-12-16T08:17:23.636Z,35.67
2022-12-16T08:20:09.860Z,38.13
2022-12-16T08:22:55.525Z,33.53
2022-12-16T08:25:41.441Z,36.43
2022-12-16T08:28:27.754Z,35.40
2022-12-16T08:31:13.724Z,36.07
2022-12-16T08:34:00.113Z,36.10
2022-12-16T08:36:45.986Z,33.37
2022-12-16T08:39:32.003Z,34.20
2022-12-16T08:42:18.280Z,34.93
2022-12-16T08:45:04.312Z,36.83
2022-12-16T08:47:50.727Z,33.40
2022-12-16T08:50:37.297Z,35.73
2022-12-16T08:53:23.330Z,31.13
2022-12-16T08:56:09.439Z,30.53
2022-12-16T08:58:55.434Z,28.57
2022-12-16T09:01:42.082Z,29.57
2022-12-16T09:04:28.336Z,28.93
2022-12-16T09:07:14.116Z,28.60
2022-12-16T09:10:00.191Z,29.63
2022-12-16T09:12:46.141Z,26.60
2022-12-16T09:15:32.165Z,27.20
2022-12-16T09:18:18.472Z,25.47
2022-12-16T09:21:04.418Z,27.30
2022-12-16T09:23:50.988Z,27.77
2022-12-16T09:26:37.305Z,28.77
2022-12-16T09:29:23.532Z,31.47
2022-12-16T09:32:09.782Z,36.70
2022-12-16T09:34:55.865Z,34.03
2022-12-16T09:37:42.019Z,40.80
2022-12-16T09:40:30.279Z,35.47
2022-12-16T09:43:21.955Z,38.83
2022-12-16T09:46:27.169Z,42.93
2022-12-16T09:49:13.473Z,44.27
2022-12-16T09:52:00.339Z,38.90
2022-12-16T09:54:49.117Z,37.13
2022-12-16T09:57:35.539Z,37.30
2022-12-16T10:00:24.183Z,35.13
2022-12-16T10:03:10.774Z,31.67
2022-12-16T10:06:22.220Z,28.10
2022-12-16T10:09:13.847Z,25.23
2022-12-16T10:12:05.777Z,25.27
2022-12-16T10:14:55.580Z,28.87
2022-12-16T10:17:42.592Z,28.37
2022-12-16T10:20:34.333Z,24.53
2022-12-16T10:23:35.455Z,24.70
2022-12-16T10:26:27.853Z,24.07
2022-12-16T10:29:17.449Z,19.97
2022-12-16T10:32:03.553Z,21.27
2022-12-16T10:34:51.322Z,21.30
2022-12-16T10:37:42.156Z,19.27
2022-12-16T10:40:33.723Z,22.40
2022-12-16T10:43:25.070Z,19.47
2022-12-16T10:46:12.782Z,20.17
2022-12-16T10:48:59.204Z,16.30
2022-12-16T10:51:46.881Z,16.73
2022-12-16T10:54:39.099Z,18.73
2022-12-16T10:57:25.066Z,19.30
2022-12-16T11:00:11.098Z,23.03
2022-12-16T11:02:57.362Z,21.00
2022-12-16T11:05:54.080Z,21.87
2022-12-16T11:08:43.598Z,20.87
2022-12-16T11:11:34.211Z,20.17
2022-12-16T11:14:35.613Z,19.57
2022-12-16T11:17:48.211Z,21.93
2022-12-16T11:20:41.538Z,18.77
2022-12-16T11:23:34.083Z,20.70
2022-12-16T11:26:36.399Z,20.97
2022-12-16T11:29:31.205Z,18.80
2022-12-16T11:32:20.487Z,18.03
2022-12-16T11:35:10.692Z,20.27
2022-12-16T11:37:57.569Z,18.50
2022-12-16T11:40:44.015Z,15.60
2022-12-16T11:43:32.739Z,19.43
2022-12-16T11:46:20.456Z,18.33
2022-12-16T11:49:08.443Z,18.70
2022-12-16T11:52:08.132Z,17.97
2022-12-16T11:55:09.818Z,24.73
2022-12-16T11:58:18.581Z,18.67
2022-12-16T12:01:08.974Z,21.00
2022-12-16T12:03:56.344Z,17.40
2022-12-16T12:07:01.244Z,20.37
2022-12-16T12:09:47.286Z,18.93
2022-12-16T12:13:02.552Z,17.33
2022-12-16T12:15:53.825Z,21.27
2022-12-16T12:18:52.183Z,23.00
2022-12-16T12:21:53.364Z,17.30
2022-12-16T12:24:39.161Z,20.07
2022-12-16T12:27:24.996Z,19.77
2022-12-16T12:30:17.466Z,19.80
2022-12-16T12:33:12.694Z,17.17
2022-12-16T12:36:10.818Z,15.13
2022-12-16T12:39:07.030Z,17.37
2022-12-16T12:42:18.741Z,15.37
2022-12-16T12:45:26.728Z,16.63
2022-12-16T12:48:19.869Z,15.57
2022-12-16T12:51:14.263Z,18.07
2022-12-16T12:54:00.358Z,19.77
2022-12-16T12:56:55.517Z,17.43
2022-12-16T12:59:45.013Z,17.00
2022-12-16T13:02:38.076Z,19.93
2022-12-16T13:05:24.779Z,17.47
2022-12-16T13:08:11.005Z,20.80
2022-12-16T13:10:57.391Z,19.87
2022-12-16T13:13:43.575Z,19.83
2022-12-16T13:16:30.756Z,18.30
2022-12-16T13:19:35.935Z,18.60
2022-12-16T13:22:21.988Z,24.07
2022-12-16T13:25:09.103Z,19.27
2022-12-16T13:28:05.803Z,17.30
2022-12-16T13:30:52.841Z,21.63
2022-12-16T13:33:41.771Z,21.63
2022-12-16T13:36:29.008Z,17.93
2022-12-16T13:39:15.951Z,19.90
2022-12-16T13:42:01.818Z,16.13
2022-12-16T13:45:07.667Z,21.03
2022-12-16T13:47:59.768Z,22.30
2022-12-16T13:50:57.996Z,20.80
2022-12-16T13:53:59.220Z,23.33
2022-12-16T13:56:56.559Z,22.43
2022-12-16T13:59:45.469Z,22.50
2022-12-16T14:02:52.153Z,24.77
2022-12-16T14:05:48.231Z,23.63
2022-12-16T14:08:40.031Z,20.23
2022-12-16T14:11:32.498Z,17.90
2022-12-16T14:14:22.333Z,23.40
2022-12-16T14:17:19.899Z,17.87
2022-12-16T14:20:14.954Z,17.83
2022-12-16T14:23:32.414Z,17.50
2022-12-16T14:26:19.051Z,18.77
2022-12-16T14:29:07.163Z,16.77
2022-12-16T14:32:00.786Z,19.83
2022-12-16T14:34:49.405Z,20.00
2022-12-16T14:37:55.807Z,17.90
2022-12-16T14:40:44.672Z,17.63
2022-12-16T14:43:32.427Z,20.60
2022-12-16T14:46:21.791Z,18.80
2022-12-16T14:49:08.483Z,19.90
2022-12-16T14:51:55.759Z,18.27
2022-12-16T14:54:54.903Z,25.50
2022-12-16T14:57:42.312Z,23.03
2022-12-16T15:00:28.345Z,23.77
2022-12-16T15:03:20.663Z,25.83
2022-12-16T15:06:10.281Z,25.60
2022-12-16T15:09:01.064Z,21.37
2022-12-16T15:11:47.165Z,21.33
2022-12-16T15:14:36.901Z,26.27
2022-12-16T15:17:23.479Z,25.07
2022-12-16T15:20:10.519Z,24.17
2022-12-16T15:22:56.815Z,28.93
2022-12-16T15:25:44.212Z,25.90
2022-12-16T15:28:44.158Z,27.90
2022-12-16T15:31:43.828Z,27.20
2022-12-16T15:34:39.031Z,23.70
2022-12-16T15:37:34.717Z,24.97
2022-12-16T15:40:20.974Z,25.43
2022-12-16T15:43:11.855Z,26.40
2022-12-16T15:45:57.767Z,25.37
2022-12-16T15:48:48.856Z,26.57
2022-12-16T15:51:40.485Z,24.97
2022-12-16T15:54:33.568Z,24.57
2022-12-16T15:57:19.769Z,22.97
2022-12-16T16:00:18.677Z,25.53
2022-12-16T16:03:06.075Z,22.53
2022-12-16T16:05:55.344Z,22.77
2022-12-16T16:08:41.115Z,23.33
2022-12-16T16:11:27.444Z,20.17
2022-12-16T16:14:14.620Z,20.30
2022-12-16T16:17:00.713Z,18.77
2022-12-16T16:19:47.372Z,18.00
2022-12-16T16:22:34.713Z,17.70
2022-12-16T16:25:21.099Z,19.20
2022-12-16T16:28:07.351Z,21.17
2022-12-16T16:30:53.247Z,31.20
2022-12-16T16:33:39.532Z,32.27
2022-12-16T16:36:34.540Z,18.07
2022-12-16T16:39:20.811Z,19.20
2022-12-16T16:42:07.033Z,18.53
2022-12-16T16:44:53.697Z,17.70
2022-12-16T16:47:40.228Z,19.27
2022-12-16T16:50:26.466Z,18.93
2022-12-16T16:53:12.371Z,19.07
2022-12-16T16:55:58.618Z,16.07
2022-12-16T16:58:46.249Z,16.13
2022-12-16T17:01:33.904Z,14.80
2022-12-16T17:04:20.221Z,13.77
2022-12-16T17:07:06.309Z,15.93
2022-12-16T17:09:52.207Z,17.10
2022-12-16T17:12:39.034Z,16.23
2022-12-16T17:15:37.305Z,13.20
2022-12-16T17:18:23.778Z,16.20
2022-12-16T17:21:10.427Z,13.50
2022-12-16T17:23:56.720Z,15.10
2022-12-16T17:26:43.576Z,13.97
2022-12-16T17:29:47.973Z,14.23
2022-12-16T17:32:34.343Z,14.50
2022-12-16T17:35:20.625Z,12.57
2022-12-16T17:38:06.437Z,15.67
2022-12-16T17:40:52.791Z,15.90
2022-12-16T17:43:39.419Z,14.20
2022-12-16T17:46:26.986Z,16.37
2022-12-16T17:49:16.972Z,16.00
2022-12-16T17:52:03.438Z,17.27
2022-12-16T17:54:50.587Z,19.43
2022-12-16T17:57:37.467Z,18.30
2022-12-16T18:00:24.206Z,17.33
2022-12-16T18:03:10.829Z,15.50
2022-12-16T18:05:57.939Z,13.60
2022-12-16T18:08:44.120Z,14.67
2022-12-16T18:11:33.483Z,14.00
2022-12-16T18:14:21.859Z,15.33
2022-12-16T18:17:08.294Z,18.23
2022-12-16T18:19:57.200Z,15.17
2022-12-16T18:22:43.393Z,18.53
2022-12-16T18:25:29.254Z,20.50
2022-12-16T18:28:15.392Z,17.47
2022-12-16T18:31:01.832Z,18.47
2022-12-16T18:33:47.744Z,18.67
2022-12-16T18:36:33.908Z,15.53
2022-12-16T18:39:19.736Z,17.53
2022-12-16T18:42:06.440Z,17.07
2022-12-16T18:45:00.703Z,18.83
2022-12-16T18:47:47.110Z,19.10
2022-12-16T18:50:37.953Z,15.83
2022-12-16T18:53:25.195Z,17.13
2022-12-16T18:56:21.175Z,19.67
2022-12-16T18:59:07.217Z,19.83
2022-12-16T19:01:53.306Z,17.20
2022-12-16T19:04:39.692Z,18.07
2022-12-16T19:07:25.798Z,68.17
2022-12-16T19:10:11.582Z,26.03
2022-12-16T19:12:58.140Z,18.73
2022-12-16T19:15:44.314Z,19.87
2022-12-16T19:18:31.114Z,20.20
2022-12-16T19:21:17.810Z,18.77
2022-12-16T19:24:03.663Z,18.63
2022-12-16T19:26:50.412Z,20.87
2022-12-16T19:29:36.648Z,22.17
2022-12-16T19:32:22.864Z,23.70
2022-12-16T19:35:09.454Z,25.60
2022-12-16T19:37:56.877Z,31.03
2022-12-16T19:40:43.073Z,23.77
2022-12-16T19:43:29.011Z,25.30
2022-12-16T19:46:15.600Z,32.50
2022-12-16T19:49:02.035Z,23.70
2022-12-16T19:51:47.953Z,21.67
2022-12-16T19:54:34.641Z,23.80
2022-12-16T19:57:20.547Z,26.43
2022-12-16T20:00:06.521Z,37.67
2022-12-16T20:02:52.603Z,41.10
2022-12-16T20:05:39.464Z,39.77
2022-12-16T20:08:25.865Z,37.67
2022-12-16T20:11:11.760Z,38.87
2022-12-16T20:13:58.236Z,44.83
2022-12-16T20:16:44.211Z,34.60
2022-12-16T20:19:30.415Z,34.23
2022-12-16T20:22:17.074Z,36.40
2022-12-16T20:25:03.139Z,27.63
2022-12-16T20:27:49.430Z,29.87
2022-12-16T20:30:35.655Z,28.27
2022-12-16T20:33:21.679Z,27.90
2022-12-16T20:36:18.034Z,25.60
2022-12-16T20:39:04.160Z,25.07
2022-12-16T20:41:51.695Z,24.20
2022-12-16T20:44:37.978Z,29.23
2022-12-16T20:47:24.111Z,23.73
2022-12-16T20:50:10.038Z,23.60
2022-12-16T20:52:55.762Z,24.97
2022-12-16T20:55:43.537Z,24.80
2022-12-16T20:58:29.623Z,50.03
2022-12-16T21:01:16.693Z,23.40
2022-12-16T21:04:02.845Z,24.93
2022-12-16T21:06:48.977Z,19.90
2022-12-16T21:09:35.374Z,42.30
2022-12-16T21:12:21.517Z,35.93
2022-12-16T21:15:08.326Z,34.30
2022-12-16T21:17:54.754Z,28.50
2022-12-16T21:20:42.267Z,27.70
2022-12-16T21:23:29.538Z,25.83
2022-12-16T21:26:18.414Z,26.30
2022-12-16T21:29:04.441Z,21.60
2022-12-16T21:31:50.771Z,19.53
2022-12-16T21:34:37.074Z,21.07
2022-12-16T21:37:23.181Z,22.53
2022-12-16T21:40:09.430Z,25.97
2022-12-16T21:42:56.250Z,27.80
2022-12-16T21:45:43.016Z,30.43
2022-12-16T21:48:30.173Z,28.83
2022-12-16T21:51:16.278Z,29.93
2022-12-16T21:54:22.470Z,31.03
2022-12-16T21:57:09.636Z,33.13
2022-12-16T21:59:56.482Z,33.97
2022-12-16T22:02:42.317Z,38.47
2022-12-16T22:05:28.075Z,25.60
2022-12-16T22:08:14.314Z,23.87
2022-12-16T22:11:00.231Z,21.90
2022-12-16T22:13:46.534Z,24.43
2022-12-16T22:16:32.629Z,22.43
2022-12-16T22:19:18.675Z,24.93
2022-12-16T22:22:06.568Z,21.80
2022-12-16T22:24:52.967Z,20.40
2022-12-16T22:27:40.800Z,25.20
2022-12-16T22:30:28.496Z,24.63
2022-12-16T22:33:15.229Z,24.30
2022-12-16T22:36:01.615Z,19.17
2022-12-16T22:38:50.959Z,20.13
2022-12-16T22:41:38.441Z,22.80
2022-12-16T22:44:24.809Z,24.80
2022-12-16T22:47:10.796Z,19.77
2022-12-16T22:49:57.038Z,20.90
2022-12-16T22:52:43.559Z,21.63
2022-12-16T22:55:29.647Z,19.63
2022-12-16T22:58:15.513Z,18.07
2022-12-16T23:01:01.600Z,19.00
2022-12-16T23:03:47.975Z,17.33
2022-12-16T23:06:33.904Z,15.70
2022-12-16T23:09:19.660Z,16.93
2022-12-16T23:12:06.074Z,18.87
2022-12-16T23:14:52.223Z,20.87
2022-12-16T23:17:38.310Z,22.27
2022-12-16T23:20:24.566Z,22.30
2022-12-16T23:23:12.995Z,22.33
2022-12-16T23:25:58.784Z,23.73
2022-12-16T23:28:45.289Z,24.20
2022-12-16T23:31:31.885Z,21.50
2022-12-16T23:34:17.952Z,23.30
2022-12-16T23:37:04.226Z,24.37
2022-12-16T23:39:50.261Z,20.37
2022-12-16T23:42:36.189Z,22.63
2022-12-16T23:45:22.157Z,26.97
2022-12-16T23:48:09.644Z,24.83
2022-12-16T23:50:56.455Z,25.27
2022-12-16T23:53:42.453Z,23.43
2022-12-16T23:56:29.685Z,22.13
2022-12-16T23:59:15.739Z,23.23
